sensor_id;sensor_type;location;lat;lon;timestamp;temperature;humidity
48212;DHT22;34000;48.772;9.162;2024-01-10T00:01:08;4.40;38.80
48212;DHT22;34000;48.772;9.162;2024-01-10T00:03:34;4.40;38.20
48212;DHT22;34000;48.772;9.162;2024-01-10T00:05:59;4.40;38.20
48212;DHT22;34000;48.772;9.162;2024-01-10T00:08:25;4.40;38.10
48212;DHT22;34000;48.772;9.162;2024-01-10T00:10:52;4.40;38.10
48212;DHT22;34000;48.772;9.162;2024-01-10T00:13:20;4.40;38.20
48212;DHT22;34000;48.772;9.162;2024-01-10T00:15:46;4.40;38.10
48212;DHT22;34000;48.772;9.162;2024-01-10T00:18:11;4.40;38.00
48212;DHT22;34000;48.772;9.162;2024-01-10T00:20:37;4.30;38.00
48212;DHT22;34000;48.772;9.162;2024-01-10T00:23:03;4.30;37.90
48212;DHT22;34000;48.772;9.162;2024-01-10T00:25:28;4.40;38.00
48212;DHT22;34000;48.772;9.162;2024-01-10T00:27:54;4.30;37.90
48212;DHT22;34000;48.772;9.162;2024-01-10T00:30:21;4.30;37.90
48212;DHT22;34000;48.772;9.162;2024-01-10T00:32:46;4.30;37.90
48212;DHT22;34000;48.772;9.162;2024-01-10T00:35:12;4.30;37.80
48212;DHT22;34000;48.772;9.162;2024-01-10T00:37:37;4.20;37.80
48212;DHT22;34000;48.772;9.162;2024-01-10T00:40:03;4.20;37.80
48212;DHT22;34000;48.772;9.162;2024-01-10T00:42:29;4.30;37.80
48212;DHT22;34000;48.772;9.162;2024-01-10T00:44:55;4.30;37.80
48212;DHT22;34000;48.772;9.162;2024-01-10T00:47:20;4.20;37.70
48212;DHT22;34000;48.772;9.162;2024-01-10T00:49:46;4.20;37.60
48212;DHT22;34000;48.772;9.162;2024-01-10T00:52:11;4.20;37.60
48212;DHT22;34000;48.772;9.162;2024-01-10T00:54:37;4.10;37.70
48212;DHT22;34000;48.772;9.162;2024-01-10T00:57:03;4.00;37.60
48212;DHT22;34000;48.772;9.162;2024-01-10T00:59:28;4.10;37.70
48212;DHT22;34000;48.772;9.162;2024-01-10T01:01:54;4.20;37.80
48212;DHT22;34000;48.772;9.162;2024-01-10T01:04:19;4.10;37.70
48212;DHT22;34000;48.772;9.162;2024-01-10T01:06:46;4.10;37.60
48212;DHT22;34000;48.772;9.162;2024-01-10T01:09:11;4.10;37.60
48212;DHT22;34000;48.772;9.162;2024-01-10T01:11:41;4.10;37.60
48212;DHT22;34000;48.772;9.162;2024-01-10T01:14:06;4.10;37.60
48212;DHT22;34000;48.772;9.162;2024-01-10T01:16:33;4.20;37.60
48212;DHT22;34000;48.772;9.162;2024-01-10T01:18:58;4.20;37.60
48212;DHT22;34000;48.772;9.162;2024-01-10T01:21:24;4.20;37.50
48212;DHT22;34000;48.772;9.162;2024-01-10T01:23:49;4.20;37.50
48212;DHT22;34000;48.772;9.162;2024-01-10T01:26:15;4.20;37.40
48212;DHT22;34000;48.772;9.162;2024-01-10T01:28:41;4.30;37.50
48212;DHT22;34000;48.772;9.162;2024-01-10T01:31:06;4.30;37.40
48212;DHT22;34000;48.772;9.162;2024-01-10T01:33:32;4.30;37.40
48212;DHT22;34000;48.772;9.162;2024-01-10T01:35:58;4.30;37.40
48212;DHT22;34000;48.772;9.162;2024-01-10T01:38:24;4.20;37.40
48212;DHT22;34000;48.772;9.162;2024-01-10T01:40:49;4.30;37.40
48212;DHT22;34000;48.772;9.162;2024-01-10T01:43:23;4.30;37.40
48212;DHT22;34000;48.772;9.162;2024-01-10T01:45:54;4.30;37.40
48212;DHT22;34000;48.772;9.162;2024-01-10T01:48:21;4.30;37.40
48212;DHT22;34000;48.772;9.162;2024-01-10T01:50:50;4.30;37.30
48212;DHT22;34000;48.772;9.162;2024-01-10T01:53:16;4.30;37.30
48212;DHT22;34000;48.772;9.162;2024-01-10T01:55:44;4.30;37.30
48212;DHT22;34000;48.772;9.162;2024-01-10T01:58:11;4.30;37.30
48212;DHT22;34000;48.772;9.162;2024-01-10T02:00:38;4.20;37.20
48212;DHT22;34000;48.772;9.162;2024-01-10T02:03:09;4.20;37.30
48212;DHT22;34000;48.772;9.162;2024-01-10T02:05:35;4.20;37.30
48212;DHT22;34000;48.772;9.162;2024-01-10T02:08:01;4.20;37.30
48212;DHT22;34000;48.772;9.162;2024-01-10T02:10:27;4.10;37.30
48212;DHT22;34000;48.772;9.162;2024-01-10T02:12:52;4.00;37.20
48212;DHT22;34000;48.772;9.162;2024-01-10T02:15:18;4.00;37.30
48212;DHT22;34000;48.772;9.162;2024-01-10T02:17:44;4.00;37.40
48212;DHT22;34000;48.772;9.162;2024-01-10T02:20:14;3.90;37.30
48212;DHT22;34000;48.772;9.162;2024-01-10T02:22:42;3.90;37.30
48212;DHT22;34000;48.772;9.162;2024-01-10T02:25:09;3.80;37.30
48212;DHT22;34000;48.772;9.162;2024-01-10T02:27:36;3.80;37.40
48212;DHT22;34000;48.772;9.162;2024-01-10T02:30:03;3.80;37.40
48212;DHT22;34000;48.772;9.162;2024-01-10T02:32:29;3.70;37.40
48212;DHT22;34000;48.772;9.162;2024-01-10T02:34:55;3.70;37.40
48212;DHT22;34000;48.772;9.162;2024-01-10T02:37:20;3.70;37.50
48212;DHT22;34000;48.772;9.162;2024-01-10T02:39:46;3.60;37.50
48212;DHT22;34000;48.772;9.162;2024-01-10T02:42:12;3.60;37.50
48212;DHT22;34000;48.772;9.162;2024-01-10T02:44:37;3.60;37.50
48212;DHT22;34000;48.772;9.162;2024-01-10T02:47:03;3.60;37.50
48212;DHT22;34000;48.772;9.162;2024-01-10T02:49:29;3.60;37.50
48212;DHT22;34000;48.772;9.162;2024-01-10T02:51:54;3.60;37.50
48212;DHT22;34000;48.772;9.162;2024-01-10T02:54:20;3.60;37.50
48212;DHT22;34000;48.772;9.162;2024-01-10T02:56:46;3.60;37.50
48212;DHT22;34000;48.772;9.162;2024-01-10T02:59:11;3.60;37.60
48212;DHT22;34000;48.772;9.162;2024-01-10T03:01:37;3.60;37.60
48212;DHT22;34000;48.772;9.162;2024-01-10T03:04:03;3.70;37.60
48212;DHT22;34000;48.772;9.162;2024-01-10T03:06:29;3.70;37.50
48212;DHT22;34000;48.772;9.162;2024-01-10T03:08:55;3.80;37.60
48212;DHT22;34000;48.772;9.162;2024-01-10T03:11:21;3.80;37.50
48212;DHT22;34000;48.772;9.162;2024-01-10T03:13:47;3.80;37.50
48212;DHT22;34000;48.772;9.162;2024-01-10T03:16:13;3.80;37.40
48212;DHT22;34000;48.772;9.162;2024-01-10T03:18:39;3.90;37.50
48212;DHT22;34000;48.772;9.162;2024-01-10T03:21:05;3.90;37.50
48212;DHT22;34000;48.772;9.162;2024-01-10T03:23:31;3.90;37.50
48212;DHT22;34000;48.772;9.162;2024-01-10T03:25:57;3.90;37.60
48212;DHT22;34000;48.772;9.162;2024-01-10T03:28:23;3.90;37.60
48212;DHT22;34000;48.772;9.162;2024-01-10T03:30:49;3.80;37.50
48212;DHT22;34000;48.772;9.162;2024-01-10T03:33:15;3.90;37.60
48212;DHT22;34000;48.772;9.162;2024-01-10T03:35:41;3.90;37.70
48212;DHT22;34000;48.772;9.162;2024-01-10T03:38:07;3.90;37.70
48212;DHT22;34000;48.772;9.162;2024-01-10T03:40:33;3.90;37.70
48212;DHT22;34000;48.772;9.162;2024-01-10T03:42:58;4.00;37.70
48212;DHT22;34000;48.772;9.162;2024-01-10T03:45:24;4.00;37.70
48212;DHT22;34000;48.772;9.162;2024-01-10T03:47:49;4.00;37.60
48212;DHT22;34000;48.772;9.162;2024-01-10T03:50:19;4.00;37.60
48212;DHT22;34000;48.772;9.162;2024-01-10T03:52:45;4.00;38.20
48212;DHT22;34000;48.772;9.162;2024-01-10T03:55:14;3.90;38.00
48212;DHT22;34000;48.772;9.162;2024-01-10T04:00:50;3.90;37.70
48212;DHT22;34000;48.772;9.162;2024-01-10T04:03:15;3.90;37.60
48212;DHT22;34000;48.772;9.162;2024-01-10T04:05:42;3.90;37.70
48212;DHT22;34000;48.772;9.162;2024-01-10T04:08:07;3.90;37.80
48212;DHT22;34000;48.772;9.162;2024-01-10T04:10:33;3.90;37.80
48212;DHT22;34000;48.772;9.162;2024-01-10T04:12:58;3.90;37.80
48212;DHT22;34000;48.772;9.162;2024-01-10T04:15:24;3.90;37.80
48212;DHT22;34000;48.772;9.162;2024-01-10T04:17:50;4.00;37.90
48212;DHT22;34000;48.772;9.162;2024-01-10T04:20:15;4.00;37.80
48212;DHT22;34000;48.772;9.162;2024-01-10T04:22:41;4.00;37.70
48212;DHT22;34000;48.772;9.162;2024-01-10T04:25:07;4.00;37.70
48212;DHT22;34000;48.772;9.162;2024-01-10T04:27:33;4.00;37.70
48212;DHT22;34000;48.772;9.162;2024-01-10T04:29:58;4.00;37.70
48212;DHT22;34000;48.772;9.162;2024-01-10T04:32:24;3.90;37.80
48212;DHT22;34000;48.772;9.162;2024-01-10T04:34:50;3.90;37.80
48212;DHT22;34000;48.772;9.162;2024-01-10T04:37:16;3.90;37.90
48212;DHT22;34000;48.772;9.162;2024-01-10T04:39:42;3.80;37.90
48212;DHT22;34000;48.772;9.162;2024-01-10T04:42:11;3.80;38.00
48212;DHT22;34000;48.772;9.162;2024-01-10T04:44:37;3.80;38.00
48212;DHT22;34000;48.772;9.162;2024-01-10T04:47:03;3.80;38.00
48212;DHT22;34000;48.772;9.162;2024-01-10T04:49:28;3.80;38.00
48212;DHT22;34000;48.772;9.162;2024-01-10T04:51:54;3.80;38.00
48212;DHT22;34000;48.772;9.162;2024-01-10T04:54:20;3.90;38.10
48212;DHT22;34000;48.772;9.162;2024-01-10T04:56:46;3.90;38.00
48212;DHT22;34000;48.772;9.162;2024-01-10T04:59:11;3.90;37.90
48212;DHT22;34000;48.772;9.162;2024-01-10T05:01:37;3.90;37.90
48212;DHT22;34000;48.772;9.162;2024-01-10T05:04:03;3.90;37.80
48212;DHT22;34000;48.772;9.162;2024-01-10T05:06:29;3.80;37.80
48212;DHT22;34000;48.772;9.162;2024-01-10T05:08:55;3.80;37.90
48212;DHT22;34000;48.772;9.162;2024-01-10T05:11:24;3.80;37.90
48212;DHT22;34000;48.772;9.162;2024-01-10T05:13:50;3.80;38.00
48212;DHT22;34000;48.772;9.162;2024-01-10T05:16:16;3.80;38.00
48212;DHT22;34000;48.772;9.162;2024-01-10T05:18:41;3.80;38.10
48212;DHT22;34000;48.772;9.162;2024-01-10T05:21:07;3.70;38.10
48212;DHT22;34000;48.772;9.162;2024-01-10T05:23:32;3.80;38.10
48212;DHT22;34000;48.772;9.162;2024-01-10T05:25:58;3.80;38.20
48212;DHT22;34000;48.772;9.162;2024-01-10T05:28:24;3.70;38.10
48212;DHT22;34000;48.772;9.162;2024-01-10T05:30:49;3.70;38.10
48212;DHT22;34000;48.772;9.162;2024-01-10T05:33:15;3.70;38.20
48212;DHT22;34000;48.772;9.162;2024-01-10T05:35:42;3.60;38.10
48212;DHT22;34000;48.772;9.162;2024-01-10T05:38:08;3.60;38.20
48212;DHT22;34000;48.772;9.162;2024-01-10T05:40:33;3.70;38.30
48212;DHT22;34000;48.772;9.162;2024-01-10T05:42:59;3.60;38.30
48212;DHT22;34000;48.772;9.162;2024-01-10T05:45:25;3.60;38.30
48212;DHT22;34000;48.772;9.162;2024-01-10T05:47:51;3.50;38.40
48212;DHT22;34000;48.772;9.162;2024-01-10T05:50:16;3.50;38.40
48212;DHT22;34000;48.772;9.162;2024-01-10T05:52:42;3.50;38.40
48212;DHT22;34000;48.772;9.162;2024-01-10T05:55:09;3.60;38.50
48212;DHT22;34000;48.772;9.162;2024-01-10T05:57:38;3.60;38.50
48212;DHT22;34000;48.772;9.162;2024-01-10T06:00:05;3.50;38.40
48212;DHT22;34000;48.772;9.162;2024-01-10T06:02:36;3.50;38.40
48212;DHT22;34000;48.772;9.162;2024-01-10T06:05:09;3.50;38.40
48212;DHT22;34000;48.772;9.162;2024-01-10T06:07:39;3.50;38.40
48212;DHT22;34000;48.772;9.162;2024-01-10T06:10:07;3.50;38.40
48212;DHT22;34000;48.772;9.162;2024-01-10T06:12:32;3.40;38.40
48212;DHT22;34000;48.772;9.162;2024-01-10T06:14:58;3.50;38.50
48212;DHT22;34000;48.772;9.162;2024-01-10T06:17:24;3.40;38.40
48212;DHT22;34000;48.772;9.162;2024-01-10T06:19:50;3.40;38.40
48212;DHT22;34000;48.772;9.162;2024-01-10T06:22:16;3.30;38.40
48212;DHT22;34000;48.772;9.162;2024-01-10T06:24:42;3.30;38.50
48212;DHT22;34000;48.772;9.162;2024-01-10T06:27:08;3.20;38.50
48212;DHT22;34000;48.772;9.162;2024-01-10T06:29:35;3.20;38.60
48212;DHT22;34000;48.772;9.162;2024-01-10T06:32:00;3.20;38.70
48212;DHT22;34000;48.772;9.162;2024-01-10T06:34:27;3.20;38.70
48212;DHT22;34000;48.772;9.162;2024-01-10T06:36:52;3.20;38.80
48212;DHT22;34000;48.772;9.162;2024-01-10T06:39:18;3.30;38.90
48212;DHT22;34000;48.772;9.162;2024-01-10T06:41:47;3.30;38.90
48212;DHT22;34000;48.772;9.162;2024-01-10T06:44:12;3.30;38.80
48212;DHT22;34000;48.772;9.162;2024-01-10T06:46:38;3.30;38.80
48212;DHT22;34000;48.772;9.162;2024-01-10T06:49:03;3.20;38.70
48212;DHT22;34000;48.772;9.162;2024-01-10T06:51:29;3.20;38.90
48212;DHT22;34000;48.772;9.162;2024-01-10T06:53:55;3.10;39.00
48212;DHT22;34000;48.772;9.162;2024-01-10T06:56:28;3.00;39.10
48212;DHT22;34000;48.772;9.162;2024-01-10T06:58:53;3.00;39.20
48212;DHT22;34000;48.772;9.162;2024-01-10T07:01:20;2.90;39.20
48212;DHT22;34000;48.772;9.162;2024-01-10T07:03:47;2.90;39.20
48212;DHT22;34000;48.772;9.162;2024-01-10T07:06:13;2.90;39.30
48212;DHT22;34000;48.772;9.162;2024-01-10T07:08:42;2.90;39.30
48212;DHT22;34000;48.772;9.162;2024-01-10T07:11:08;2.90;39.40
48212;DHT22;34000;48.772;9.162;2024-01-10T07:13:34;2.90;39.40
48212;DHT22;34000;48.772;9.162;2024-01-10T07:16:00;2.80;39.40
48212;DHT22;34000;48.772;9.162;2024-01-10T07:18:28;2.90;39.50
48212;DHT22;34000;48.772;9.162;2024-01-10T07:20:54;2.80;39.50
48212;DHT22;34000;48.772;9.162;2024-01-10T07:23:19;2.80;39.60
48212;DHT22;34000;48.772;9.162;2024-01-10T07:25:45;2.80;39.70
48212;DHT22;34000;48.772;9.162;2024-01-10T07:28:10;2.80;39.60
48212;DHT22;34000;48.772;9.162;2024-01-10T07:30:36;2.70;39.70
48212;DHT22;34000;48.772;9.162;2024-01-10T07:33:01;2.80;39.70
48212;DHT22;34000;48.772;9.162;2024-01-10T07:35:27;2.80;39.80
48212;DHT22;34000;48.772;9.162;2024-01-10T07:37:54;2.80;39.80
48212;DHT22;34000;48.772;9.162;2024-01-10T07:40:20;2.80;39.80
48212;DHT22;34000;48.772;9.162;2024-01-10T07:42:46;2.80;39.90
48212;DHT22;34000;48.772;9.162;2024-01-10T07:45:11;2.80;39.80
48212;DHT22;34000;48.772;9.162;2024-01-10T07:47:37;2.80;39.80
48212;DHT22;34000;48.772;9.162;2024-01-10T07:52:30;2.80;39.90
48212;DHT22;34000;48.772;9.162;2024-01-10T07:54:56;2.90;40.00
48212;DHT22;34000;48.772;9.162;2024-01-10T07:57:22;2.90;40.00
48212;DHT22;34000;48.772;9.162;2024-01-10T07:59:48;2.90;40.10
48212;DHT22;34000;48.772;9.162;2024-01-10T08:02:13;3.00;40.20
48212;DHT22;34000;48.772;9.162;2024-01-10T08:04:39;3.10;40.20
48212;DHT22;34000;48.772;9.162;2024-01-10T08:07:04;3.20;40.10
48212;DHT22;34000;48.772;9.162;2024-01-10T08:09:30;3.20;40.10
48212;DHT22;34000;48.772;9.162;2024-01-10T08:11:56;3.40;40.20
48212;DHT22;34000;48.772;9.162;2024-01-10T08:14:21;3.40;40.00
48212;DHT22;34000;48.772;9.162;2024-01-10T08:16:47;3.50;39.90
48212;DHT22;34000;48.772;9.162;2024-01-10T08:19:13;3.60;39.90
48212;DHT22;34000;48.772;9.162;2024-01-10T08:21:38;3.60;39.90
48212;DHT22;34000;48.772;9.162;2024-01-10T08:24:04;3.70;39.90
48212;DHT22;34000;48.772;9.162;2024-01-10T08:26:31;3.70;39.90
48212;DHT22;34000;48.772;9.162;2024-01-10T08:28:57;3.80;39.90
48212;DHT22;34000;48.772;9.162;2024-01-10T08:31:23;3.80;39.80
48212;DHT22;34000;48.772;9.162;2024-01-10T08:33:49;3.80;39.80
48212;DHT22;34000;48.772;9.162;2024-01-10T08:36:14;3.90;39.80
48212;DHT22;34000;48.772;9.162;2024-01-10T08:38:41;3.90;40.40
48212;DHT22;34000;48.772;9.162;2024-01-10T08:41:10;3.90;39.80
48212;DHT22;34000;48.772;9.162;2024-01-10T08:43:39;3.90;39.90
48212;DHT22;34000;48.772;9.162;2024-01-10T08:46:06;4.00;39.90
48212;DHT22;34000;48.772;9.162;2024-01-10T08:48:32;3.90;40.40
48212;DHT22;34000;48.772;9.162;2024-01-10T08:50:57;3.90;39.90
48212;DHT22;34000;48.772;9.162;2024-01-10T08:53:23;3.90;40.00
48212;DHT22;34000;48.772;9.162;2024-01-10T08:55:48;3.90;40.10
48212;DHT22;34000;48.772;9.162;2024-01-10T08:58:14;3.90;40.00
48212;DHT22;34000;48.772;9.162;2024-01-10T09:00:39;3.90;40.00
48212;DHT22;34000;48.772;9.162;2024-01-10T09:03:05;3.90;40.10
48212;DHT22;34000;48.772;9.162;2024-01-10T09:05:31;3.90;40.10
48212;DHT22;34000;48.772;9.162;2024-01-10T09:07:57;4.00;40.20
48212;DHT22;34000;48.772;9.162;2024-01-10T09:10:23;4.00;40.20
48212;DHT22;34000;48.772;9.162;2024-01-10T09:12:49;4.10;40.10
48212;DHT22;34000;48.772;9.162;2024-01-10T09:15:15;4.10;40.10
48212;DHT22;34000;48.772;9.162;2024-01-10T09:17:44;4.10;40.10
48212;DHT22;34000;48.772;9.162;2024-01-10T09:20:11;4.10;40.10
48212;DHT22;34000;48.772;9.162;2024-01-10T09:22:37;4.20;40.20
48212;DHT22;34000;48.772;9.162;2024-01-10T09:25:04;4.20;40.10
48212;DHT22;34000;48.772;9.162;2024-01-10T09:27:31;4.30;40.10
48212;DHT22;34000;48.772;9.162;2024-01-10T09:29:57;4.30;40.10
48212;DHT22;34000;48.772;9.162;2024-01-10T09:32:23;4.50;40.20
48212;DHT22;34000;48.772;9.162;2024-01-10T09:34:48;5.00;40.40
48212;DHT22;34000;48.772;9.162;2024-01-10T09:37:14;5.90;40.10
48212;DHT22;34000;48.772;9.162;2024-01-10T09:39:40;7.00;39.40
48212;DHT22;34000;48.772;9.162;2024-01-10T09:42:06;8.20;38.60
48212;DHT22;34000;48.772;9.162;2024-01-10T09:44:32;9.30;37.70
48212;DHT22;34000;48.772;9.162;2024-01-10T09:46:58;10.30;36.40
48212;DHT22;34000;48.772;9.162;2024-01-10T09:49:24;11.00;35.60
48212;DHT22;34000;48.772;9.162;2024-01-10T09:51:53;11.60;35.10
48212;DHT22;34000;48.772;9.162;2024-01-10T09:54:24;12.20;34.90
48212;DHT22;34000;48.772;9.162;2024-01-10T09:56:51;12.80;34.50
48212;DHT22;34000;48.772;9.162;2024-01-10T09:59:18;13.30;34.30
48212;DHT22;34000;48.772;9.162;2024-01-10T10:01:44;13.90;34.10
48212;DHT22;34000;48.772;9.162;2024-01-10T10:04:12;14.50;33.80
48212;DHT22;34000;48.772;9.162;2024-01-10T10:06:38;14.90;33.40
48212;DHT22;34000;48.772;9.162;2024-01-10T10:09:04;15.30;32.90
48212;DHT22;34000;48.772;9.162;2024-01-10T10:11:30;15.60;32.80
48212;DHT22;34000;48.772;9.162;2024-01-10T10:13:55;15.70;32.30
48212;DHT22;34000;48.772;9.162;2024-01-10T10:16:25;15.70;32.20
48212;DHT22;34000;48.772;9.162;2024-01-10T10:18:54;15.80;32.70
48212;DHT22;34000;48.772;9.162;2024-01-10T10:21:25;15.90;31.90
48212;DHT22;34000;48.772;9.162;2024-01-10T10:23:59;16.10;31.80
48212;DHT22;34000;48.772;9.162;2024-01-10T10:26:26;16.30;31.60
48212;DHT22;34000;48.772;9.162;2024-01-10T10:28:52;16.40;31.30
48212;DHT22;34000;48.772;9.162;2024-01-10T10:31:19;16.50;31.00
48212;DHT22;34000;48.772;9.162;2024-01-10T10:33:48;16.60;31.00
48212;DHT22;34000;48.772;9.162;2024-01-10T10:36:14;16.80;30.90
48212;DHT22;34000;48.772;9.162;2024-01-10T10:38:40;17.10;30.80
48212;DHT22;34000;48.772;9.162;2024-01-10T10:41:06;17.20;30.60
48212;DHT22;34000;48.772;9.162;2024-01-10T10:43:36;17.20;31.00
48212;DHT22;34000;48.772;9.162;2024-01-10T10:46:04;17.20;30.50
48212;DHT22;34000;48.772;9.162;2024-01-10T10:48:32;17.20;31.20
48212;DHT22;34000;48.772;9.162;2024-01-10T10:51:14;17.20;30.20
48212;DHT22;34000;48.772;9.162;2024-01-10T10:53:42;17.00;30.20
48212;DHT22;34000;48.772;9.162;2024-01-10T10:56:11;17.00;31.20
48212;DHT22;34000;48.772;9.162;2024-01-10T10:58:42;17.00;30.60
48212;DHT22;34000;48.772;9.162;2024-01-10T11:01:09;17.00;30.60
48212;DHT22;34000;48.772;9.162;2024-01-10T11:03:37;16.90;30.40
48212;DHT22;34000;48.772;9.162;2024-01-10T11:06:04;16.90;30.50
48212;DHT22;34000;48.772;9.162;2024-01-10T11:08:36;16.70;30.40
48212;DHT22;34000;48.772;9.162;2024-01-10T11:11:07;16.60;30.40
48212;DHT22;34000;48.772;9.162;2024-01-10T11:14:07;16.60;30.50
48212;DHT22;34000;48.772;9.162;2024-01-10T11:24:44;16.10;30.70
48212;DHT22;34000;48.772;9.162;2024-01-10T11:27:13;16.10;30.90
48212;DHT22;34000;48.772;9.162;2024-01-10T11:29:40;16.20;30.80
48212;DHT22;34000;48.772;9.162;2024-01-10T11:32:06;16.30;30.60
48212;DHT22;34000;48.772;9.162;2024-01-10T11:34:35;16.30;30.40
48212;DHT22;34000;48.772;9.162;2024-01-10T11:37:11;16.20;30.30
48212;DHT22;34000;48.772;9.162;2024-01-10T11:39:43;16.10;30.40
48212;DHT22;34000;48.772;9.162;2024-01-10T11:42:09;16.10;30.50
48212;DHT22;34000;48.772;9.162;2024-01-10T11:44:50;16.00;30.30
48212;DHT22;34000;48.772;9.162;2024-01-10T11:47:16;15.80;30.30
48212;DHT22;34000;48.772;9.162;2024-01-10T11:49:54;15.70;30.50
48212;DHT22;34000;48.772;9.162;2024-01-10T11:52:21;15.70;30.60
48212;DHT22;34000;48.772;9.162;2024-01-10T11:54:47;15.60;30.70
48212;DHT22;34000;48.772;9.162;2024-01-10T11:57:23;15.60;30.70
48212;DHT22;34000;48.772;9.162;2024-01-10T11:59:52;15.60;30.50
48212;DHT22;34000;48.772;9.162;2024-01-10T12:02:19;15.50;30.30
48212;DHT22;34000;48.772;9.162;2024-01-10T12:04:45;15.30;30.40
48212;DHT22;34000;48.772;9.162;2024-01-10T12:07:14;15.20;30.60
48212;DHT22;34000;48.772;9.162;2024-01-10T12:09:40;15.20;30.80
48212;DHT22;34000;48.772;9.162;2024-01-10T12:12:07;15.20;30.70
48212;DHT22;34000;48.772;9.162;2024-01-10T12:14:34;15.20;30.60
48212;DHT22;34000;48.772;9.162;2024-01-10T12:17:00;15.10;30.60
48212;DHT22;34000;48.772;9.162;2024-01-10T12:19:26;14.90;30.60
48212;DHT22;34000;48.772;9.162;2024-01-10T12:21:51;14.80;30.70
48212;DHT22;34000;48.772;9.162;2024-01-10T12:24:18;14.70;30.60
48212;DHT22;34000;48.772;9.162;2024-01-10T12:26:45;14.60;30.70
48212;DHT22;34000;48.772;9.162;2024-01-10T12:29:11;14.50;30.80
48212;DHT22;34000;48.772;9.162;2024-01-10T12:31:37;14.40;30.80
48212;DHT22;34000;48.772;9.162;2024-01-10T12:34:04;14.30;30.70
48212;DHT22;34000;48.772;9.162;2024-01-10T12:36:32;14.10;30.80
48212;DHT22;34000;48.772;9.162;2024-01-10T12:38:57;14.00;31.00
48212;DHT22;34000;48.772;9.162;2024-01-10T12:41:23;13.90;31.10
48212;DHT22;34000;48.772;9.162;2024-01-10T12:43:53;13.80;31.10
48212;DHT22;34000;48.772;9.162;2024-01-10T12:46:20;13.70;31.20
48212;DHT22;34000;48.772;9.162;2024-01-10T12:49:06;13.70;31.30
48212;DHT22;34000;48.772;9.162;2024-01-10T12:51:33;13.60;31.20
48212;DHT22;34000;48.772;9.162;2024-01-10T12:54:02;13.50;31.30
48212;DHT22;34000;48.772;9.162;2024-01-10T12:56:29;13.30;31.30
48212;DHT22;34000;48.772;9.162;2024-01-10T12:58:55;13.20;31.30
48212;DHT22;34000;48.772;9.162;2024-01-10T13:01:22;13.00;31.40
48212;DHT22;34000;48.772;9.162;2024-01-10T13:03:48;12.90;31.60
48212;DHT22;34000;48.772;9.162;2024-01-10T13:06:17;12.70;31.50
48212;DHT22;34000;48.772;9.162;2024-01-10T13:08:44;12.70;31.70
48212;DHT22;34000;48.772;9.162;2024-01-10T13:11:11;12.70;31.80
48212;DHT22;34000;48.772;9.162;2024-01-10T13:13:37;12.60;31.90
48212;DHT22;34000;48.772;9.162;2024-01-10T13:16:03;12.70;31.90
48212;DHT22;34000;48.772;9.162;2024-01-10T13:18:29;12.70;31.80
48212;DHT22;34000;48.772;9.162;2024-01-10T13:20:55;12.70;31.80
48212;DHT22;34000;48.772;9.162;2024-01-10T13:23:21;12.70;31.80
48212;DHT22;34000;48.772;9.162;2024-01-10T13:25:52;12.70;31.80
48212;DHT22;34000;48.772;9.162;2024-01-10T13:28:19;12.70;31.80
48212;DHT22;34000;48.772;9.162;2024-01-10T13:30:44;12.70;31.80
48212;DHT22;34000;48.772;9.162;2024-01-10T13:33:10;12.80;31.70
48212;DHT22;34000;48.772;9.162;2024-01-10T13:35:36;12.80;31.60
48212;DHT22;34000;48.772;9.162;2024-01-10T13:38:02;12.70;31.60
48212;DHT22;34000;48.772;9.162;2024-01-10T13:40:28;12.60;31.50
48212;DHT22;34000;48.772;9.162;2024-01-10T13:42:54;12.50;31.50
48212;DHT22;34000;48.772;9.162;2024-01-10T13:45:20;12.30;31.60
48212;DHT22;34000;48.772;9.162;2024-01-10T13:47:46;12.20;31.70
48212;DHT22;34000;48.772;9.162;2024-01-10T13:50:12;12.10;31.70
48212;DHT22;34000;48.772;9.162;2024-01-10T13:52:40;12.10;31.80
48212;DHT22;34000;48.772;9.162;2024-01-10T13:55:07;12.10;31.80
48212;DHT22;34000;48.772;9.162;2024-01-10T13:57:32;12.00;31.60
48212;DHT22;34000;48.772;9.162;2024-01-10T13:59:59;12.00;31.60
48212;DHT22;34000;48.772;9.162;2024-01-10T14:02:25;12.00;31.50
48212;DHT22;34000;48.772;9.162;2024-01-10T14:04:52;11.90;31.50
48212;DHT22;34000;48.772;9.162;2024-01-10T14:07:19;11.80;31.50
48212;DHT22;34000;48.772;9.162;2024-01-10T14:09:45;11.70;31.60
48212;DHT22;34000;48.772;9.162;2024-01-10T14:12:14;11.60;31.60
48212;DHT22;34000;48.772;9.162;2024-01-10T14:14:40;11.50;31.60
48212;DHT22;34000;48.772;9.162;2024-01-10T14:17:06;11.40;31.70
48212;DHT22;34000;48.772;9.162;2024-01-10T14:19:31;11.30;31.70
48212;DHT22;34000;48.772;9.162;2024-01-10T14:21:58;11.20;31.70
48212;DHT22;34000;48.772;9.162;2024-01-10T14:24:24;11.10;31.80
48212;DHT22;34000;48.772;9.162;2024-01-10T14:26:50;11.00;31.90
48212;DHT22;34000;48.772;9.162;2024-01-10T14:29:16;10.90;32.00
48212;DHT22;34000;48.772;9.162;2024-01-10T14:31:41;10.80;32.00
48212;DHT22;34000;48.772;9.162;2024-01-10T14:34:07;10.70;32.10
48212;DHT22;34000;48.772;9.162;2024-01-10T14:36:32;10.60;32.20
48212;DHT22;34000;48.772;9.162;2024-01-10T14:38:59;10.50;32.20
48212;DHT22;34000;48.772;9.162;2024-01-10T14:41:24;10.50;32.30
48212;DHT22;34000;48.772;9.162;2024-01-10T14:43:50;10.40;32.40
48212;DHT22;34000;48.772;9.162;2024-01-10T14:46:15;10.40;32.50
48212;DHT22;34000;48.772;9.162;2024-01-10T14:48:41;10.30;32.50
48212;DHT22;34000;48.772;9.162;2024-01-10T14:51:07;10.20;32.60
48212;DHT22;34000;48.772;9.162;2024-01-10T14:53:33;10.20;32.60
48212;DHT22;34000;48.772;9.162;2024-01-10T14:56:00;10.10;32.60
48212;DHT22;34000;48.772;9.162;2024-01-10T14:58:26;10.20;32.70
48212;DHT22;34000;48.772;9.162;2024-01-10T15:00:51;10.10;32.70
48212;DHT22;34000;48.772;9.162;2024-01-10T15:03:17;10.00;32.70
48212;DHT22;34000;48.772;9.162;2024-01-10T15:05:43;10.00;32.80
48212;DHT22;34000;48.772;9.162;2024-01-10T15:08:08;10.00;32.90
48212;DHT22;34000;48.772;9.162;2024-01-10T15:10:38;9.90;32.90
48212;DHT22;34000;48.772;9.162;2024-01-10T15:13:09;9.80;32.90
48212;DHT22;34000;48.772;9.162;2024-01-10T15:15:37;9.80;32.90
48212;DHT22;34000;48.772;9.162;2024-01-10T15:18:03;9.80;33.00
48212;DHT22;34000;48.772;9.162;2024-01-10T15:20:29;9.70;33.00
48212;DHT22;34000;48.772;9.162;2024-01-10T15:22:55;9.70;33.10
48212;DHT22;34000;48.772;9.162;2024-01-10T15:25:21;9.60;33.10
48212;DHT22;34000;48.772;9.162;2024-01-10T15:27:47;9.60;33.20
48212;DHT22;34000;48.772;9.162;2024-01-10T15:30:13;9.50;33.20
48212;DHT22;34000;48.772;9.162;2024-01-10T15:32:39;9.50;33.30
48212;DHT22;34000;48.772;9.162;2024-01-10T15:35:04;9.40;33.40
48212;DHT22;34000;48.772;9.162;2024-01-10T15:37:30;9.40;33.40
48212;DHT22;34000;48.772;9.162;2024-01-10T15:39:56;9.40;33.50
48212;DHT22;34000;48.772;9.162;2024-01-10T15:42:21;9.30;33.50
48212;DHT22;34000;48.772;9.162;2024-01-10T15:44:47;9.30;33.50
48212;DHT22;34000;48.772;9.162;2024-01-10T15:47:13;9.30;33.60
48212;DHT22;34000;48.772;9.162;2024-01-10T15:49:38;9.30;33.70